createdAt,value
2018-05-12T00:00:57.415Z,31.13
2018-05-12T00:03:23.722Z,31.40
2018-05-12T00:05:50.065Z,30.30
2018-05-12T00:08:16.297Z,30.27
2018-05-12T00:10:42.589Z,27.47
2018-05-12T00:13:08.915Z,32.30
2018-05-12T00:15:35.977Z,30.87
2018-05-12T00:18:02.305Z,32.23
2018-05-12T00:20:28.664Z,29.57
2018-05-12T00:22:55.651Z,32.40
2018-05-12T00:25:22.710Z,33.63
2018-05-12T00:27:50.560Z,34.83
2018-05-12T00:30:16.837Z,32.60
2018-05-12T00:32:43.126Z,32.87
2018-05-12T00:35:09.878Z,34.47
2018-05-12T00:37:37.654Z,35.93
2018-05-12T00:40:04.698Z,35.37
2018-05-12T00:42:32.143Z,34.93
2018-05-12T00:44:59.523Z,32.80
2018-05-12T00:47:26.873Z,36.77
2018-05-12T00:49:53.189Z,35.23
2018-05-12T00:52:20.220Z,33.93
2018-05-12T00:54:46.496Z,35.40
2018-05-12T00:57:12.835Z,34.23
2018-05-12T00:59:39.121Z,33.20
2018-05-12T01:02:06.181Z,35.30
2018-05-12T01:04:33.255Z,33.37
2018-05-12T01:06:59.545Z,37.00
2018-05-12T01:09:25.987Z,36.10
2018-05-12T01:11:53.029Z,32.60
2018-05-12T01:14:19.664Z,35.63
2018-05-12T01:16:46.061Z,36.10
2018-05-12T01:19:12.391Z,38.47
2018-05-12T01:21:38.725Z,36.40
2018-05-12T01:24:04.999Z,37.67
2018-05-12T01:26:32.435Z,37.80
2018-05-12T01:28:58.709Z,35.67
2018-05-12T01:31:25.035Z,37.17
2018-05-12T01:33:52.141Z,35.63
2018-05-12T01:36:18.484Z,36.67
2018-05-12T01:38:44.746Z,37.40
2018-05-12T01:41:11.070Z,37.33
2018-05-12T01:43:38.462Z,38.23
2018-05-12T01:46:04.753Z,35.57
2018-05-12T01:48:31.164Z,39.07
2018-05-12T01:50:57.463Z,38.63
2018-05-12T01:53:23.755Z,42.10
2018-05-12T01:55:50.076Z,41.13
2018-05-12T01:58:17.144Z,39.47
2018-05-12T02:00:43.745Z,41.73
2018-05-12T02:03:09.999Z,43.03
2018-05-12T02:05:37.011Z,43.27
2018-05-12T02:08:03.379Z,39.77
2018-05-12T02:10:30.427Z,41.10
2018-05-12T02:12:57.465Z,42.43
2018-05-12T02:15:24.521Z,40.40
2018-05-12T02:17:51.606Z,43.07
2018-05-12T02:20:17.934Z,40.33
2018-05-12T02:22:44.215Z,41.77
2018-05-12T02:25:10.487Z,42.40
2018-05-12T02:27:36.815Z,40.17
2018-05-12T02:30:03.119Z,40.30
2018-05-12T02:32:30.120Z,39.20
2018-05-12T02:34:56.403Z,41.27
2018-05-12T02:37:22.711Z,39.10
2018-05-12T02:39:49.728Z,41.20
2018-05-12T02:42:15.978Z,42.00
2018-05-12T02:44:43.759Z,39.70
2018-05-12T02:47:10.795Z,39.20
2018-05-12T02:49:38.581Z,39.77
2018-05-12T02:52:05.609Z,39.67
2018-05-12T02:54:32.664Z,38.30
2018-05-12T02:56:59.710Z,38.93
2018-05-12T02:59:26.137Z,40.10
2018-05-12T03:01:53.188Z,38.90
2018-05-12T03:04:19.470Z,45.30
2018-05-12T03:06:45.815Z,43.20
2018-05-12T03:09:12.142Z,40.40
2018-05-12T03:11:38.423Z,44.20
2018-05-12T03:14:05.488Z,43.50
2018-05-12T03:16:31.765Z,42.63
2018-05-12T03:19:04.904Z,42.03
2018-05-12T03:21:31.209Z,43.40
2018-05-12T03:23:57.544Z,41.43
2018-05-12T03:26:24.174Z,42.30
2018-05-12T03:28:50.441Z,41.63
2018-05-12T03:31:16.697Z,41.50
2018-05-12T03:33:42.974Z,45.33
2018-05-12T03:36:09.270Z,42.40
2018-05-12T03:38:35.564Z,39.30
2018-05-12T03:41:01.857Z,43.13
2018-05-12T03:43:28.516Z,44.93
2018-05-12T03:45:54.832Z,45.73
2018-05-12T03:48:21.142Z,44.67
2018-05-12T03:50:47.515Z,44.60
2018-05-12T03:53:14.562Z,46.40
2018-05-12T03:55:41.894Z,47.20
2018-05-12T03:58:08.215Z,45.60
2018-05-12T04:00:34.519Z,46.00
2018-05-12T04:03:00.982Z,46.30
2018-05-12T04:05:46.156Z,45.03
2018-05-12T04:08:32.514Z,47.50
2018-05-12T04:11:19.926Z,45.50
2018-05-12T04:13:46.214Z,47.73
2018-05-12T04:16:12.497Z,45.83
2018-05-12T04:18:38.731Z,46.77
2018-05-12T04:21:05.074Z,44.50
2018-05-12T04:23:32.281Z,44.27
2018-05-12T04:25:58.895Z,43.93
2018-05-12T04:28:25.191Z,46.13
2018-05-12T04:30:51.515Z,45.13
2018-05-12T04:33:17.791Z,42.60
2018-05-12T04:35:44.620Z,40.90
2018-05-12T04:38:10.978Z,37.90
2018-05-12T04:40:38.409Z,43.40
2018-05-12T04:43:04.647Z,41.23
2018-05-12T04:45:30.943Z,37.23
2018-05-12T04:47:57.257Z,37.77
2018-05-12T04:50:23.536Z,36.60
2018-05-12T04:52:49.844Z,35.70
2018-05-12T04:55:16.122Z,37.30
2018-05-12T04:57:43.135Z,34.67
2018-05-12T05:00:09.421Z,35.13
2018-05-12T05:02:35.730Z,38.43
2018-05-12T05:05:02.777Z,37.60
2018-05-12T05:07:29.794Z,33.30
2018-05-12T05:09:56.179Z,34.37
2018-05-12T05:12:22.480Z,32.87
2018-05-12T05:14:49.506Z,34.90
2018-05-12T05:17:15.785Z,34.97
2018-05-12T05:19:42.070Z,36.47
2018-05-12T05:22:08.720Z,35.30
2018-05-12T05:24:35.769Z,36.47
2018-05-12T05:27:02.804Z,36.13
2018-05-12T05:29:29.120Z,33.87
2018-05-12T05:31:55.423Z,35.43
2018-05-12T05:34:21.686Z,34.40
2018-05-12T05:36:48.337Z,35.40
2018-05-12T05:39:14.645Z,39.10
2018-05-12T05:41:41.031Z,37.07
2018-05-12T05:44:13.552Z,38.10
2018-05-12T05:46:39.870Z,37.40
2018-05-12T05:49:06.182Z,38.20
2018-05-12T05:51:32.665Z,37.20
2018-05-12T05:53:58.947Z,38.00
2018-05-12T05:56:25.224Z,37.93
2018-05-12T05:58:51.579Z,35.90
2018-05-12T06:01:19.027Z,38.47
2018-05-12T06:03:46.334Z,39.43
2018-05-12T06:06:12.579Z,39.13
2018-05-12T06:08:39.222Z,37.10
2018-05-12T06:11:05.553Z,40.80
2018-05-12T06:13:31.849Z,29.60
2018-05-12T06:15:58.141Z,36.50
2018-05-12T06:18:25.941Z,37.73
2018-05-12T06:20:52.266Z,38.00
2018-05-12T06:23:19.650Z,38.07
2018-05-12T06:25:46.822Z,37.40
2018-05-12T06:28:13.117Z,37.43
2018-05-12T06:30:39.377Z,38.93
2018-05-12T06:33:06.132Z,38.87
2018-05-12T06:35:32.415Z,37.47
2018-05-12T06:37:58.716Z,37.90
2018-05-12T06:40:26.894Z,35.80
2018-05-12T06:42:53.635Z,38.87
2018-05-12T06:45:20.735Z,35.10
2018-05-12T06:47:47.157Z,35.83
2018-05-12T06:50:13.446Z,38.77
2018-05-12T06:52:40.532Z,37.53
2018-05-12T06:55:06.794Z,38.87
2018-05-12T06:57:34.176Z,37.57
2018-05-12T07:00:00.465Z,35.80
2018-05-12T07:02:26.791Z,38.93
2018-05-12T07:04:55.155Z,38.40
2018-05-12T07:07:23.649Z,35.53
2018-05-12T07:09:51.037Z,33.87
2018-05-12T07:12:17.419Z,35.73
2018-05-12T07:14:43.662Z,31.83
2018-05-12T07:17:11.006Z,37.60
2018-05-12T07:19:37.268Z,31.70
2018-05-12T07:22:03.599Z,37.40
2018-05-12T07:24:29.992Z,35.00
2018-05-12T07:26:56.277Z,34.43
2018-05-12T07:29:22.937Z,33.17
2018-05-12T07:31:49.937Z,28.77
2018-05-12T07:34:16.253Z,35.77
2018-05-12T07:36:42.583Z,37.00
2018-05-12T07:39:08.956Z,33.77
2018-05-12T07:41:36.198Z,36.63
2018-05-12T07:44:02.496Z,36.73
2018-05-12T07:46:28.857Z,32.90
2018-05-12T07:48:55.205Z,35.43
2018-05-12T07:51:21.551Z,32.77
2018-05-12T07:53:47.911Z,37.17
2018-05-12T07:56:14.206Z,33.70
2018-05-12T07:58:41.677Z,39.00
2018-05-12T08:01:08.798Z,35.20
2018-05-12T08:03:35.107Z,36.53
2018-05-12T08:06:01.383Z,36.60
2018-05-12T08:08:27.657Z,36.50
2018-05-12T08:10:57.999Z,35.93
2018-05-12T08:13:24.325Z,36.07
2018-05-12T08:15:50.617Z,36.43
2018-05-12T08:18:17.704Z,33.33
2018-05-12T08:20:44.024Z,33.30
2018-05-12T08:23:10.379Z,35.37
2018-05-12T08:25:37.720Z,36.40
2018-05-12T08:28:04.023Z,33.90
2018-05-12T08:30:30.321Z,38.23
2018-05-12T08:32:56.627Z,26.80
2018-05-12T08:35:22.931Z,32.37
2018-05-12T08:37:49.224Z,32.53
2018-05-12T08:40:16.697Z,32.87
2018-05-12T08:42:43.735Z,31.97
2018-05-12T08:45:10.830Z,32.20
2018-05-12T08:47:37.161Z,32.63
2018-05-12T08:50:03.523Z,35.87
2018-05-12T08:52:30.887Z,37.37
2018-05-12T08:54:57.942Z,34.87
2018-05-12T08:57:24.242Z,32.90
2018-05-12T08:59:50.575Z,33.27
2018-05-12T09:02:18.917Z,32.00
2018-05-12T09:04:45.305Z,28.40
2018-05-12T09:07:11.672Z,32.73
2018-05-12T09:09:37.871Z,30.07
2018-05-12T09:12:04.155Z,31.87
2018-05-12T09:14:30.465Z,32.63
2018-05-12T09:16:56.852Z,30.17
2018-05-12T09:19:23.157Z,29.57
2018-05-12T09:21:49.458Z,33.47
2018-05-12T09:24:15.788Z,29.33
2018-05-12T09:26:42.088Z,25.57
2018-05-12T09:29:08.555Z,29.30
2018-05-12T09:31:34.854Z,30.27
2018-05-12T09:34:01.910Z,31.07
2018-05-12T09:36:28.970Z,26.00
2018-05-12T09:38:55.281Z,25.30
2018-05-12T09:41:21.916Z,27.83
2018-05-12T09:43:48.984Z,28.93
2018-05-12T09:46:16.012Z,26.47
2018-05-12T09:48:42.343Z,25.20
2018-05-12T09:51:08.622Z,28.40
2018-05-12T09:53:35.309Z,26.80
2018-05-12T09:56:01.622Z,27.10
2018-05-12T09:58:27.901Z,26.80
2018-05-12T10:00:55.345Z,24.80
2018-05-12T10:03:22.434Z,24.37
2018-05-12T10:05:48.703Z,23.83
2018-05-12T10:08:15.754Z,23.27
2018-05-12T10:10:42.043Z,21.70
2018-05-12T10:13:08.343Z,19.80
2018-05-12T10:15:34.663Z,20.30
2018-05-12T10:18:01.760Z,17.73
2018-05-12T10:20:28.094Z,17.37
2018-05-12T10:22:54.374Z,19.60
2018-05-12T10:25:21.432Z,21.30
2018-05-12T10:27:47.734Z,20.37
2018-05-12T10:30:13.993Z,22.07
2018-05-12T10:32:41.032Z,20.00
2018-05-12T10:35:08.111Z,24.10
2018-05-12T10:37:34.417Z,19.90
2018-05-12T10:40:01.499Z,26.57
2018-05-12T10:42:28.149Z,26.47
2018-05-12T10:44:54.487Z,22.57
2018-05-12T10:47:21.454Z,22.33
2018-05-12T10:49:47.746Z,21.00
2018-05-12T10:52:14.061Z,21.10
2018-05-12T10:54:40.363Z,23.73
2018-05-12T10:57:07.406Z,19.73
2018-05-12T10:59:33.725Z,21.80
2018-05-12T11:02:00.919Z,21.53
2018-05-12T11:04:27.187Z,19.20
2018-05-12T11:06:53.494Z,18.93
2018-05-12T11:09:19.814Z,18.87
2018-05-12T11:11:46.125Z,20.60
2018-05-12T11:14:13.244Z,17.67
2018-05-12T11:16:39.557Z,16.20
2018-05-12T11:19:05.859Z,15.67
2018-05-12T11:21:32.222Z,15.33
2018-05-12T11:23:58.560Z,14.10
2018-05-12T11:26:24.886Z,15.63
2018-05-12T11:28:51.223Z,14.60
2018-05-12T11:31:17.552Z,14.37
2018-05-12T11:33:43.941Z,13.20
2018-05-12T11:36:10.231Z,11.53
2018-05-12T11:38:36.584Z,12.03
2018-05-12T11:41:03.703Z,12.57
2018-05-12T11:43:30.038Z,11.30
2018-05-12T11:45:56.356Z,12.77
2018-05-12T11:48:22.654Z,10.53
2018-05-12T11:50:48.969Z,11.50
2018-05-12T11:53:16.043Z,11.87
2018-05-12T11:55:42.355Z,10.70
2018-05-12T11:58:08.632Z,11.60
2018-05-12T12:00:34.984Z,11.10
2018-05-12T12:03:01.406Z,10.17
2018-05-12T12:05:27.729Z,10.57
2018-05-12T12:07:54.418Z,12.77
2018-05-12T12:10:20.837Z,10.33
2018-05-12T12:12:48.097Z,10.20
2018-05-12T12:15:15.463Z,9.80
2018-05-12T12:17:41.948Z,9.20
2018-05-12T12:20:08.710Z,9.00
2018-05-12T12:22:35.052Z,7.20
2018-05-12T12:25:02.078Z,7.67
2018-05-12T12:27:28.413Z,7.30
2018-05-12T12:29:54.727Z,7.70
2018-05-12T12:32:20.995Z,7.30
2018-05-12T12:34:48.037Z,7.30
2018-05-12T12:37:14.333Z,6.60
2018-05-12T12:39:40.602Z,6.40
2018-05-12T12:42:06.882Z,8.33
2018-05-12T12:44:33.170Z,8.23
2018-05-12T12:47:00.218Z,7.80
2018-05-12T12:49:26.481Z,8.00
2018-05-12T12:51:53.558Z,7.83
2018-05-12T12:54:19.874Z,7.73
2018-05-12T12:56:46.191Z,7.63
2018-05-12T12:59:12.530Z,7.90
2018-05-12T13:01:38.854Z,6.63
2018-05-12T13:04:05.196Z,6.00
2018-05-12T13:06:31.533Z,5.30
2018-05-12T13:08:57.838Z,3.93
2018-05-12T13:11:24.292Z,4.80
2018-05-12T13:13:50.593Z,4.90
2018-05-12T13:16:17.804Z,5.37
2018-05-12T13:18:44.088Z,4.63
2018-05-12T13:21:10.430Z,5.43
2018-05-12T13:23:36.724Z,5.53
2018-05-12T13:26:03.826Z,6.17
2018-05-12T13:28:30.129Z,6.00
2018-05-12T13:30:56.420Z,6.17
2018-05-12T13:33:23.740Z,4.77
2018-05-12T13:35:50.047Z,6.00
2018-05-12T13:38:16.324Z,5.93
2018-05-12T13:40:42.639Z,5.47
2018-05-12T13:43:08.967Z,5.20
2018-05-12T13:45:35.323Z,5.40
2018-05-12T13:48:01.581Z,4.30
2018-05-12T13:50:27.889Z,5.30
2018-05-12T13:52:54.981Z,5.17
2018-05-12T13:55:21.250Z,5.13
2018-05-12T13:57:47.638Z,5.80
2018-05-12T14:00:13.897Z,5.67
2018-05-12T14:02:40.215Z,4.67
2018-05-12T14:05:06.495Z,3.93
2018-05-12T14:07:33.600Z,4.30
2018-05-12T14:09:59.906Z,3.90
2018-05-12T14:12:26.249Z,3.80
2018-05-12T14:14:52.972Z,3.90
2018-05-12T14:17:19.270Z,3.90
2018-05-12T14:19:46.272Z,4.60
2018-05-12T14:22:12.552Z,4.87
2018-05-12T14:24:39.571Z,4.10
2018-05-12T14:27:05.857Z,4.53
2018-05-12T14:29:32.238Z,5.90
2018-05-12T14:31:59.399Z,5.47
2018-05-12T14:34:25.694Z,5.03
2018-05-12T14:36:51.987Z,5.23
2018-05-12T14:39:18.982Z,6.37
2018-05-12T14:41:45.279Z,6.40
2018-05-12T14:44:11.565Z,6.13
2018-05-12T14:46:37.901Z,6.20
2018-05-12T14:49:04.252Z,5.70
2018-05-12T14:51:31.307Z,5.80
2018-05-12T14:53:58.411Z,6.77
2018-05-12T14:56:24.744Z,4.83
2018-05-12T14:58:51.040Z,4.70
2018-05-12T15:01:17.360Z,5.10
2018-05-12T15:03:44.591Z,6.23
2018-05-12T15:06:11.673Z,5.23
2018-05-12T15:08:38.079Z,4.50
2018-05-12T15:11:05.206Z,5.23
2018-05-12T15:13:31.541Z,4.90
2018-05-12T15:15:57.837Z,5.13
2018-05-12T15:18:24.148Z,5.03
2018-05-12T15:20:50.471Z,5.90
2018-05-12T15:23:16.743Z,4.90
2018-05-12T15:25:43.050Z,4.40
2018-05-12T15:28:09.334Z,4.40
2018-05-12T15:30:36.466Z,4.87
2018-05-12T15:33:03.500Z,4.53
2018-05-12T15:35:29.867Z,6.23
2018-05-12T15:37:56.908Z,5.30
2018-05-12T15:40:23.224Z,6.93
2018-05-12T15:42:49.498Z,4.70
2018-05-12T15:45:15.797Z,5.40
2018-05-12T15:47:42.059Z,5.20
2018-05-12T15:50:08.371Z,5.57
2018-05-12T15:52:35.441Z,5.67
2018-05-12T15:55:01.868Z,4.67
2018-05-12T15:57:28.178Z,5.83
2018-05-12T15:59:54.443Z,5.47
2018-05-12T16:02:20.772Z,6.00
2018-05-12T16:04:47.114Z,6.17
2018-05-12T16:07:13.451Z,5.70
2018-05-12T16:09:39.728Z,5.33
2018-05-12T16:12:06.819Z,6.20
2018-05-12T16:14:33.122Z,5.40
2018-05-12T16:17:00.146Z,6.07
2018-05-12T16:19:26.903Z,6.17
2018-05-12T16:21:53.911Z,6.03
2018-05-12T16:24:32.889Z,5.97
2018-05-12T16:26:59.920Z,6.10
2018-05-12T16:29:27.979Z,6.00
2018-05-12T16:31:55.250Z,6.70
2018-05-12T16:34:22.296Z,6.10
2018-05-12T16:36:49.410Z,5.73
2018-05-12T16:39:16.482Z,7.60
2018-05-12T16:41:43.958Z,6.27
2018-05-12T16:44:11.045Z,8.10
2018-05-12T16:46:37.337Z,5.97
2018-05-12T16:49:04.332Z,7.90
2018-05-12T16:51:30.614Z,6.90
2018-05-12T16:53:57.643Z,9.17
2018-05-12T16:56:23.921Z,9.27
2018-05-12T16:58:50.210Z,9.50
2018-05-12T17:01:16.596Z,9.97
2018-05-12T17:03:42.937Z,10.60
2018-05-12T17:06:09.198Z,10.60
2018-05-12T17:08:35.482Z,10.10
2018-05-12T17:11:01.764Z,10.47
2018-05-12T17:13:28.037Z,11.20
2018-05-12T17:15:54.624Z,11.70
2018-05-12T17:18:20.918Z,15.30
2018-05-12T17:20:47.172Z,12.30
2018-05-12T17:23:13.511Z,14.73
2018-05-12T17:25:39.777Z,14.00
2018-05-12T17:28:06.091Z,14.67
2018-05-12T17:30:33.106Z,14.03
2018-05-12T17:32:59.367Z,13.53
2018-05-12T17:35:25.718Z,25.50
2018-05-12T17:37:52.056Z,18.33
2018-05-12T17:40:19.065Z,15.83
2018-05-12T17:42:45.386Z,33.43
2018-05-12T17:45:11.698Z,14.80
2018-05-12T17:47:37.979Z,27.20
2018-05-12T17:50:05.054Z,16.33
2018-05-12T17:52:31.351Z,18.57
2018-05-12T17:54:58.357Z,25.10
2018-05-12T17:57:24.650Z,27.57
2018-05-12T17:59:50.971Z,19.97
2018-05-12T18:02:18.153Z,16.43
2018-05-12T18:04:44.444Z,16.50
2018-05-12T18:07:11.401Z,17.47
2018-05-12T18:09:38.443Z,19.83
2018-05-12T18:12:05.407Z,16.13
2018-05-12T18:14:31.677Z,15.90
2018-05-12T18:16:57.965Z,20.57
2018-05-12T18:19:24.248Z,14.23
2018-05-12T18:21:50.553Z,16.43
2018-05-12T18:24:16.897Z,15.10
2018-05-12T18:26:43.198Z,12.80
2018-05-12T18:29:09.543Z,13.23
2018-05-12T18:31:35.799Z,13.63
2018-05-12T18:34:02.076Z,12.37
2018-05-12T18:36:28.374Z,13.40
2018-05-12T18:38:54.666Z,12.80
2018-05-12T18:41:20.907Z,13.27
2018-05-12T18:43:47.165Z,12.87
2018-05-12T18:46:13.448Z,14.00
2018-05-12T18:48:39.747Z,13.63
2018-05-12T18:51:06.774Z,13.30
2018-05-12T18:53:33.129Z,11.13
2018-05-12T18:55:59.415Z,11.77
2018-05-12T18:58:25.701Z,13.50
2018-05-12T19:00:52.024Z,12.10
2018-05-12T19:03:18.312Z,12.93
2018-05-12T19:05:44.523Z,12.27
2018-05-12T19:08:11.832Z,11.87
2018-05-12T19:10:38.133Z,12.67
2018-05-12T19:13:04.437Z,13.97
2018-05-12T19:15:30.759Z,11.53
2018-05-12T19:17:57.005Z,13.03
2018-05-12T19:20:23.318Z,13.40
2018-05-12T19:22:49.639Z,14.00
2018-05-12T19:25:15.914Z,15.40
2018-05-12T19:27:42.944Z,16.47
2018-05-12T19:30:09.249Z,14.43
2018-05-12T19:32:35.525Z,13.73
2018-05-12T19:35:01.828Z,14.17
2018-05-12T19:37:28.101Z,15.67
2018-05-12T19:39:55.097Z,14.33
2018-05-12T19:42:21.383Z,13.67
2018-05-12T19:44:47.710Z,13.17
2018-05-12T19:47:14.729Z,14.80
2018-05-12T19:49:40.989Z,15.43
2018-05-12T19:52:07.245Z,25.27
2018-05-12T19:54:33.523Z,17.67
2018-05-12T19:56:59.863Z,15.23
2018-05-12T19:59:26.116Z,14.77
2018-05-12T20:01:53.165Z,17.27
2018-05-12T20:04:20.180Z,16.47
2018-05-12T20:06:48.053Z,15.60
2018-05-12T20:09:14.310Z,14.93
2018-05-12T20:11:41.392Z,14.27
2018-05-12T20:14:07.726Z,14.87
2018-05-12T20:16:34.024Z,17.17
2018-05-12T20:19:01.083Z,14.77
2018-05-12T20:21:27.363Z,17.37
2018-05-12T20:23:53.641Z,15.13
2018-05-12T20:26:19.982Z,18.63
2018-05-12T20:28:46.248Z,20.90
2018-05-12T20:31:12.535Z,20.57
2018-05-12T20:33:38.777Z,21.70
2018-05-12T20:36:05.063Z,27.37
2018-05-12T20:38:32.079Z,28.03
2018-05-12T20:40:58.367Z,30.20
2018-05-12T20:43:24.645Z,30.10
2018-05-12T20:45:50.958Z,28.93
2018-05-12T20:48:17.222Z,35.13
2018-05-12T20:50:43.518Z,29.40
2018-05-12T20:53:09.884Z,28.60
2018-05-12T20:55:36.314Z,26.90
2018-05-12T20:58:02.610Z,27.97
2018-05-12T21:00:28.908Z,30.40
2018-05-12T21:02:55.925Z,28.87
2018-05-12T21:05:22.200Z,29.40
2018-05-12T21:07:48.489Z,29.40
2018-05-12T21:10:14.779Z,27.87
2018-05-12T21:12:41.070Z,29.33
2018-05-12T21:15:08.072Z,28.40
2018-05-12T21:17:34.388Z,29.30
2018-05-12T21:20:00.618Z,29.67
2018-05-12T21:22:26.860Z,29.37
2018-05-12T21:24:53.126Z,31.93
2018-05-12T21:27:20.154Z,34.00
2018-05-12T21:29:46.443Z,32.80
2018-05-12T21:32:12.723Z,30.20
2018-05-12T21:34:39.414Z,31.23
2018-05-12T21:37:05.722Z,31.10
2018-05-12T21:39:32.015Z,34.00
2018-05-12T21:41:58.297Z,32.23
2018-05-12T21:44:24.617Z,33.20
2018-05-12T21:46:50.895Z,32.87
2018-05-12T21:49:17.148Z,32.90
2018-05-12T21:51:44.133Z,34.37
2018-05-12T21:54:10.407Z,35.73
2018-05-12T21:56:36.679Z,35.30
2018-05-12T21:59:03.118Z,36.13
2018-05-12T22:01:29.317Z,35.50
2018-05-12T22:03:55.605Z,35.20
2018-05-12T22:06:21.891Z,36.10
2018-05-12T22:08:48.922Z,36.27
2018-05-12T22:11:15.215Z,35.60
2018-05-12T22:13:41.530Z,35.97
2018-05-12T22:16:07.818Z,37.33
2018-05-12T22:18:34.912Z,34.17
2018-05-12T22:21:01.896Z,33.27
2018-05-12T22:23:28.912Z,34.13
2018-05-12T22:25:55.202Z,39.50
2018-05-12T22:28:22.281Z,35.57
2018-05-12T22:30:48.546Z,36.00
2018-05-12T22:33:14.829Z,35.17
2018-05-12T22:35:41.082Z,37.60
2018-05-12T22:38:07.386Z,34.13
2018-05-12T22:40:33.659Z,31.57
2018-05-12T22:42:59.928Z,30.53
2018-05-12T22:45:26.865Z,32.80
2018-05-12T22:47:53.866Z,32.23
2018-05-12T22:50:20.166Z,32.07
2018-05-12T22:52:46.504Z,32.50
2018-05-12T22:55:12.786Z,33.07
2018-05-12T22:57:39.068Z,31.40
2018-05-12T23:00:05.361Z,31.13
2018-05-12T23:02:31.627Z,34.63
2018-05-12T23:04:57.924Z,32.73
2018-05-12T23:07:24.919Z,33.30
2018-05-12T23:09:51.170Z,33.40
2018-05-12T23:12:17.428Z,32.97
2018-05-12T23:14:43.680Z,32.67
2018-05-12T23:17:10.666Z,32.60
2018-05-12T23:19:36.940Z,31.90
2018-05-12T23:22:03.945Z,34.43
2018-05-12T23:24:30.230Z,34.23
2018-05-12T23:26:57.190Z,34.27
2018-05-12T23:29:23.446Z,35.50
2018-05-12T23:31:49.732Z,34.43
2018-05-12T23:34:16.729Z,34.60
2018-05-12T23:36:42.997Z,33.20
2018-05-12T23:39:10.021Z,31.87
2018-05-12T23:41:36.293Z,36.40
2018-05-12T23:44:02.557Z,33.07
2018-05-12T23:46:28.806Z,36.87
2018-05-12T23:48:55.074Z,37.00
2018-05-12T23:51:22.165Z,34.07
2018-05-12T23:53:48.425Z,34.60
2018-05-12T23:56:15.437Z,37.07
2018-05-12T23:58:41.756Z,37.43
